createdAt,value
2022-08-30T00:01:34.289Z,44.41
2022-08-30T00:04:02.899Z,44.83
2022-08-30T00:06:31.185Z,45.02
2022-08-30T00:08:59.875Z,44.88
2022-08-30T00:11:30.220Z,44.80
2022-08-30T00:13:58.964Z,44.48
2022-08-30T00:16:27.789Z,44.66
2022-08-30T00:18:56.212Z,44.64
2022-08-30T00:21:24.654Z,44.39
2022-08-30T00:23:52.498Z,44.86
2022-08-30T00:26:20.538Z,44.92
2022-08-30T00:28:49.634Z,44.87
2022-08-30T00:31:17.441Z,45.11
2022-08-30T00:33:45.276Z,44.98
2022-08-30T00:36:13.054Z,45.36
2022-08-30T00:38:40.859Z,45.22
2022-08-30T00:41:09.079Z,45.19
2022-08-30T00:43:37.260Z,45.51
2022-08-30T00:46:08.619Z,45.44
2022-08-30T00:48:40.975Z,45.51
2022-08-30T00:51:11.375Z,45.80
2022-08-30T00:53:43.627Z,45.69
2022-08-30T00:56:12.334Z,46.09
2022-08-30T00:58:47.145Z,45.67
2022-08-30T01:01:17.174Z,45.88
2022-08-30T01:03:46.421Z,46.08
2022-08-30T01:06:16.068Z,46.14
2022-08-30T01:08:43.984Z,46.26
2022-08-30T01:11:12.955Z,46.27
2022-08-30T01:13:41.225Z,46.08
2022-08-30T01:16:09.647Z,46.47
2022-08-30T01:18:39.540Z,46.41
2022-08-30T01:21:16.329Z,46.66
2022-08-30T01:23:47.990Z,46.66
2022-08-30T01:26:17.536Z,46.78
2022-08-30T01:28:51.562Z,46.88
2022-08-30T01:31:19.616Z,47.10
2022-08-30T01:33:47.570Z,47.48
2022-08-30T01:36:17.322Z,47.50
2022-08-30T01:38:50.840Z,47.43
2022-08-30T01:41:22.149Z,47.55
2022-08-30T01:43:51.326Z,48.02
2022-08-30T01:46:21.065Z,47.73
2022-08-30T01:48:50.337Z,47.73
2022-08-30T01:51:23.503Z,48.12
2022-08-30T01:53:53.074Z,48.28
2022-08-30T01:56:21.951Z,48.26
2022-08-30T01:58:49.739Z,48.12
2022-08-30T02:01:20.408Z,48.22
2022-08-30T02:03:49.102Z,48.51
2022-08-30T02:06:19.955Z,48.83
2022-08-30T02:08:48.471Z,48.55
2022-08-30T02:11:18.312Z,48.28
2022-08-30T02:13:47.504Z,48.71
2022-08-30T02:16:18.857Z,48.99
2022-08-30T02:18:46.792Z,49.04
2022-08-30T02:21:15.104Z,49.19
2022-08-30T02:23:44.033Z,49.39
2022-08-30T02:26:13.562Z,49.26
2022-08-30T02:28:49.682Z,49.55
2022-08-30T02:31:20.428Z,49.69
2022-08-30T02:33:50.154Z,49.73
2022-08-30T02:36:18.433Z,50.05
2022-08-30T02:38:46.276Z,50.03
2022-08-30T02:41:14.385Z,49.86
2022-08-30T02:43:43.504Z,49.96
2022-08-30T02:46:11.640Z,50.66
2022-08-30T02:48:39.527Z,51.19
2022-08-30T02:51:10.578Z,51.07
2022-08-30T02:53:39.808Z,51.30
2022-08-30T02:56:08.263Z,51.49
2022-08-30T02:58:36.722Z,51.27
2022-08-30T03:01:06.239Z,51.20
2022-08-30T03:03:34.210Z,51.49
2022-08-30T03:06:03.278Z,51.38
2022-08-30T03:08:31.144Z,51.43
2022-08-30T03:10:58.949Z,51.11
2022-08-30T03:13:26.836Z,51.38
2022-08-30T03:15:54.747Z,50.82
2022-08-30T03:18:24.833Z,51.24
2022-08-30T03:20:54.001Z,51.28
2022-08-30T03:23:22.345Z,51.52
2022-08-30T03:25:50.115Z,51.91
2022-08-30T03:28:18.504Z,51.71
2022-08-30T03:30:47.737Z,52.01
2022-08-30T03:33:15.822Z,52.11
2022-08-30T03:35:48.075Z,52.55
2022-08-30T03:38:15.891Z,52.64
2022-08-30T03:40:44.791Z,52.29
2022-08-30T03:43:12.772Z,52.71
2022-08-30T03:45:41.055Z,52.54
2022-08-30T03:48:09.075Z,52.12
2022-08-30T03:50:37.102Z,52.67
2022-08-30T03:53:06.666Z,52.69
2022-08-30T03:55:35.074Z,52.19
2022-08-30T03:58:03.222Z,52.39
2022-08-30T04:00:31.346Z,52.62
2022-08-30T04:02:59.411Z,52.54
2022-08-30T04:05:28.367Z,52.99
2022-08-30T04:07:56.454Z,53.13
2022-08-30T04:10:26.652Z,53.07
2022-08-30T04:12:54.741Z,53.42
2022-08-30T04:15:22.794Z,53.35
2022-08-30T04:17:51.173Z,53.50
2022-08-30T04:20:19.343Z,53.41
2022-08-30T04:22:47.626Z,53.64
2022-08-30T04:25:16.104Z,53.61
2022-08-30T04:27:46.527Z,53.53
2022-08-30T04:30:16.144Z,53.35
2022-08-30T04:32:44.533Z,53.52
2022-08-30T04:35:13.557Z,53.79
2022-08-30T04:37:41.861Z,54.24
2022-08-30T04:40:11.192Z,54.18
2022-08-30T04:42:39.549Z,54.46
2022-08-30T04:45:11.991Z,54.35
2022-08-30T04:47:40.265Z,54.18
2022-08-30T04:50:09.014Z,54.06
2022-08-30T04:52:37.118Z,53.89
2022-08-30T04:55:06.386Z,54.13
2022-08-30T04:57:34.664Z,54.23
2022-08-30T05:00:02.808Z,53.94
2022-08-30T05:02:32.346Z,54.08
2022-08-30T05:05:17.707Z,54.06
2022-08-30T05:07:45.706Z,54.27
2022-08-30T05:10:13.842Z,54.23
2022-08-30T05:12:43.461Z,54.38
2022-08-30T05:15:13.141Z,54.07
2022-08-30T05:17:42.952Z,54.19
2022-08-30T05:20:12.805Z,54.14
2022-08-30T05:22:42.305Z,54.48
2022-08-30T05:25:10.649Z,54.55
2022-08-30T05:27:42.829Z,54.34
2022-08-30T05:30:12.671Z,54.02
2022-08-30T05:32:42.462Z,53.72
2022-08-30T05:35:13.571Z,53.94
2022-08-30T05:37:41.628Z,53.63
2022-08-30T05:40:12.196Z,53.49
2022-08-30T05:42:41.482Z,53.45
2022-08-30T05:45:10.989Z,53.72
2022-08-30T05:47:39.521Z,53.71
2022-08-30T05:50:10.142Z,53.66
2022-08-30T05:52:38.941Z,53.58
2022-08-30T05:55:08.102Z,53.52
2022-08-30T05:57:37.744Z,53.59
2022-08-30T06:00:12.512Z,53.33
2022-08-30T06:02:40.610Z,52.93
2022-08-30T06:05:10.934Z,53.46
2022-08-30T06:07:42.399Z,53.33
2022-08-30T06:10:12.309Z,53.14
2022-08-30T06:12:40.253Z,53.24
2022-08-30T06:15:09.465Z,52.87
2022-08-30T06:17:39.570Z,52.78
2022-08-30T06:20:10.253Z,53.06
2022-08-30T06:22:38.916Z,52.63
2022-08-30T06:25:07.539Z,52.58
2022-08-30T06:27:35.368Z,52.47
2022-08-30T06:30:03.274Z,52.15
2022-08-30T06:32:31.109Z,52.01
2022-08-30T06:34:58.916Z,51.87
2022-08-30T06:37:30.122Z,51.77
2022-08-30T06:39:58.634Z,51.37
2022-08-30T06:42:31.682Z,51.27
2022-08-30T06:44:59.713Z,51.12
2022-08-30T06:47:27.490Z,50.71
2022-08-30T06:49:55.351Z,50.83
2022-08-30T06:52:23.338Z,50.62
2022-08-30T06:54:53.278Z,50.47
2022-08-30T06:57:21.075Z,50.08
2022-08-30T06:59:48.880Z,49.99
2022-08-30T07:02:16.922Z,50.03
2022-08-30T07:04:44.661Z,49.70
2022-08-30T07:07:12.813Z,49.78
2022-08-30T07:09:43.310Z,49.70
2022-08-30T07:12:13.245Z,49.18
2022-08-30T07:14:41.418Z,48.76
2022-08-30T07:17:23.800Z,48.79
2022-08-30T07:19:51.903Z,48.45
2022-08-30T07:22:19.745Z,48.12
2022-08-30T07:24:48.068Z,47.78
2022-08-30T07:27:17.546Z,47.36
2022-08-30T07:29:45.606Z,46.99
2022-08-30T07:32:13.636Z,46.71
2022-08-30T07:34:41.703Z,46.33
2022-08-30T07:37:09.737Z,46.10
2022-08-30T07:39:47.743Z,45.41
2022-08-30T07:42:17.186Z,44.66
2022-08-30T07:44:45.339Z,44.75
2022-08-30T07:47:13.530Z,44.42
2022-08-30T07:49:41.335Z,44.20
2022-08-30T07:52:09.500Z,43.68
2022-08-30T07:54:37.445Z,43.18
2022-08-30T07:57:05.594Z,42.57
2022-08-30T07:59:36.187Z,42.19
2022-08-30T08:02:04.696Z,42.04
2022-08-30T08:04:33.210Z,41.82
2022-08-30T08:07:01.232Z,41.92
2022-08-30T08:09:29.100Z,41.69
2022-08-30T08:11:57.111Z,41.69
2022-08-30T08:14:24.890Z,41.50
2022-08-30T08:16:54.498Z,41.99
2022-08-30T08:19:22.286Z,42.01
2022-08-30T08:21:59.383Z,41.56
2022-08-30T08:24:38.199Z,41.58
2022-08-30T08:27:06.400Z,41.42
2022-08-30T08:29:34.466Z,41.02
2022-08-30T08:32:04.013Z,40.76
2022-08-30T08:34:31.927Z,40.69
2022-08-30T08:36:59.750Z,40.49
2022-08-30T08:39:27.533Z,40.22
2022-08-30T08:42:04.195Z,40.31
2022-08-30T08:47:22.493Z,39.98
2022-08-30T08:49:54.228Z,39.23
2022-08-30T08:52:51.012Z,39.18
2022-08-30T08:55:23.389Z,37.94
2022-08-30T08:57:52.414Z,37.92
2022-08-30T09:00:20.745Z,37.21
2022-08-30T09:02:58.452Z,36.29
2022-08-30T09:05:30.426Z,35.93
2022-08-30T09:08:04.581Z,35.34
2022-08-30T09:10:50.052Z,35.32
2022-08-30T09:13:19.051Z,34.60
2022-08-30T09:15:49.920Z,34.46
2022-08-30T09:18:42.753Z,34.73
2022-08-30T09:21:14.938Z,34.41
2022-08-30T09:23:50.845Z,34.28
2022-08-30T09:26:31.764Z,33.63
2022-08-30T09:29:01.030Z,34.28
2022-08-30T09:31:30.688Z,33.73
2022-08-30T09:34:05.246Z,33.66
2022-08-30T09:36:36.531Z,33.30
2022-08-30T09:39:07.187Z,33.16
2022-08-30T09:41:42.557Z,32.88
2022-08-30T09:44:17.653Z,33.24
2022-08-30T09:46:48.272Z,32.45
2022-08-30T09:49:38.806Z,31.86
2022-08-30T09:52:19.471Z,31.13
2022-08-30T09:55:03.287Z,31.29
2022-08-30T09:57:39.067Z,31.12
2022-08-30T10:00:09.786Z,30.14
2022-08-30T10:02:58.780Z,29.67
2022-08-30T10:05:33.553Z,29.57
2022-08-30T10:08:12.563Z,29.42
2022-08-30T10:10:48.591Z,29.17
2022-08-30T10:13:42.991Z,29.21
2022-08-30T10:16:22.793Z,28.36
2022-08-30T10:19:04.299Z,28.61
2022-08-30T10:21:41.506Z,28.23
2022-08-30T10:24:14.079Z,28.43
2022-08-30T10:26:53.786Z,28.38
2022-08-30T10:29:26.371Z,28.14
2022-08-30T10:31:59.693Z,28.14
2022-08-30T10:34:34.003Z,27.80
2022-08-30T10:37:08.144Z,27.60
2022-08-30T10:39:42.260Z,26.98
2022-08-30T10:42:16.433Z,27.05
2022-08-30T10:44:49.857Z,27.10
2022-08-30T10:47:26.822Z,26.37
2022-08-30T10:50:04.060Z,26.13
2022-08-30T10:52:37.566Z,25.84
2022-08-30T10:55:10.833Z,25.99
2022-08-30T10:57:43.502Z,25.45
2022-08-30T11:00:14.879Z,25.59
2022-08-30T11:03:10.556Z,25.54
2022-08-30T11:06:01.292Z,25.73
2022-08-30T11:08:47.813Z,25.73
2022-08-30T11:11:26.797Z,25.16
2022-08-30T11:13:57.515Z,25.38
2022-08-30T11:16:37.862Z,25.06
2022-08-30T11:19:17.001Z,25.31
2022-08-30T11:21:47.761Z,25.39
2022-08-30T11:24:20.963Z,24.86
2022-08-30T11:26:58.762Z,25.28
2022-08-30T11:29:36.914Z,25.04
2022-08-30T11:32:23.991Z,24.89
2022-08-30T11:35:00.553Z,24.50
2022-08-30T11:37:37.124Z,24.22
2022-08-30T11:40:14.260Z,24.93
2022-08-30T11:42:48.410Z,24.48
2022-08-30T11:45:46.985Z,24.53
2022-08-30T11:48:54.424Z,24.22
2022-08-30T11:52:26.305Z,23.95
2022-08-30T11:55:00.025Z,23.80
2022-08-30T11:57:37.625Z,24.34
2022-08-30T12:00:11.971Z,24.38
2022-08-30T12:02:48.659Z,23.38
2022-08-30T12:05:52.180Z,23.79
2022-08-30T12:08:47.313Z,23.33
2022-08-30T12:12:03.902Z,23.28
2022-08-30T12:14:49.132Z,23.60
2022-08-30T12:17:43.078Z,23.39
2022-08-30T12:20:23.026Z,23.06
2022-08-30T12:22:52.352Z,23.57
2022-08-30T12:25:28.544Z,23.46
2022-08-30T12:28:14.810Z,22.74
2022-08-30T12:30:46.879Z,22.49
2022-08-30T12:33:29.039Z,22.59
2022-08-30T12:35:59.500Z,22.92
2022-08-30T12:38:28.339Z,22.92
2022-08-30T12:41:01.447Z,22.92
2022-08-30T12:43:38.814Z,22.85
2022-08-30T12:46:15.095Z,22.88
2022-08-30T12:48:44.682Z,22.77
2022-08-30T12:51:28.367Z,22.41
2022-08-30T12:54:05.939Z,22.58
2022-08-30T12:56:51.705Z,22.28
2022-08-30T12:59:52.812Z,22.42
2022-08-30T13:02:25.093Z,22.01
2022-08-30T13:04:55.740Z,22.13
2022-08-30T13:07:29.781Z,22.75
2022-08-30T13:10:04.962Z,23.14
2022-08-30T13:12:35.009Z,23.57
2022-08-30T13:15:17.623Z,23.47
2022-08-30T13:17:49.285Z,23.49
2022-08-30T13:20:26.804Z,23.13
2022-08-30T13:23:09.137Z,23.23
2022-08-30T13:25:40.551Z,22.81
2022-08-30T13:28:09.299Z,22.87
2022-08-30T13:30:38.533Z,23.26
2022-08-30T13:33:11.364Z,23.38
2022-08-30T13:35:39.392Z,23.07
2022-08-30T13:38:07.331Z,23.05
2022-08-30T13:40:35.659Z,23.25
2022-08-30T13:43:03.876Z,23.27
2022-08-30T13:45:47.327Z,23.22
2022-08-30T13:48:23.646Z,23.46
2022-08-30T13:50:53.445Z,22.86
2022-08-30T13:53:51.871Z,22.79
2022-08-30T13:56:10.140Z,22.71
2022-08-30T13:58:42.188Z,22.44
2022-08-30T14:01:10.422Z,23.06
2022-08-30T14:04:13.304Z,22.87
2022-08-30T14:06:34.110Z,22.58
2022-08-30T14:09:04.543Z,22.98
2022-08-30T14:11:33.080Z,22.49
2022-08-30T14:14:25.149Z,22.35
2022-08-30T14:16:49.570Z,22.56
2022-08-30T14:19:19.464Z,22.61
2022-08-30T14:21:49.156Z,22.39
2022-08-30T14:24:20.019Z,22.49
2022-08-30T14:26:51.533Z,22.67
2022-08-30T14:29:22.798Z,22.66
2022-08-30T14:31:52.277Z,22.17
2022-08-30T14:34:22.984Z,22.05
2022-08-30T14:36:50.865Z,22.86
2022-08-30T14:39:21.306Z,22.92
2022-08-30T14:41:51.945Z,22.67
2022-08-30T14:44:21.677Z,22.84
2022-08-30T14:46:51.080Z,23.39
2022-08-30T14:49:21.292Z,22.34
2022-08-30T14:51:49.663Z,22.65
2022-08-30T14:54:21.733Z,22.17
2022-08-30T14:56:49.605Z,21.77
2022-08-30T14:59:19.002Z,21.68
2022-08-30T15:01:47.377Z,21.60
2022-08-30T15:04:16.383Z,21.60
2022-08-30T15:06:48.097Z,21.84
2022-08-30T15:09:23.097Z,22.05
2022-08-30T15:11:52.546Z,22.04
2022-08-30T15:14:20.654Z,21.94
2022-08-30T15:16:48.540Z,22.25
2022-08-30T15:19:16.648Z,22.45
2022-08-30T15:21:47.649Z,22.21
2022-08-30T15:24:19.774Z,22.37
2022-08-30T15:26:52.981Z,22.54
2022-08-30T15:29:21.831Z,23.01
2022-08-30T15:31:50.194Z,23.46
2022-08-30T15:34:20.649Z,22.83
2022-08-30T15:36:50.459Z,23.10
2022-08-30T15:39:18.716Z,22.88
2022-08-30T15:41:57.174Z,23.28
2022-08-30T15:44:26.837Z,23.12
2022-08-30T15:46:55.456Z,23.30
2022-08-30T15:49:25.222Z,23.08
2022-08-30T15:51:54.836Z,23.97
2022-08-30T15:54:24.516Z,24.18
2022-08-30T15:56:59.480Z,24.22
2022-08-30T15:59:28.105Z,24.26
2022-08-30T16:01:56.258Z,24.37
2022-08-30T16:04:25.611Z,24.33
2022-08-30T16:06:55.405Z,24.62
2022-08-30T16:09:24.883Z,25.38
2022-08-30T16:11:52.884Z,25.22
2022-08-30T16:14:20.792Z,26.00
2022-08-30T16:16:48.719Z,26.03
2022-08-30T16:19:17.011Z,26.01
2022-08-30T16:21:44.946Z,25.69
2022-08-30T16:24:15.710Z,26.03
2022-08-30T16:26:44.765Z,25.70
2022-08-30T16:29:14.193Z,25.79
2022-08-30T16:31:44.894Z,25.77
2022-08-30T16:34:14.025Z,26.43
2022-08-30T16:36:43.207Z,26.03
2022-08-30T16:39:12.816Z,25.70
2022-08-30T16:41:44.339Z,25.70
2022-08-30T16:44:12.684Z,25.71
2022-08-30T16:46:42.690Z,25.95
2022-08-30T16:49:11.692Z,25.95
2022-08-30T16:51:39.675Z,26.55
2022-08-30T16:54:09.017Z,26.09
2022-08-30T16:56:38.060Z,26.29
2022-08-30T16:59:11.306Z,26.59
2022-08-30T17:01:41.349Z,26.67
2022-08-30T17:04:09.854Z,26.72
2022-08-30T17:06:38.158Z,27.16
2022-08-30T17:09:06.728Z,27.50
2022-08-30T17:11:35.799Z,27.28
2022-08-30T17:14:03.974Z,27.11
2022-08-30T17:16:34.959Z,26.99
2022-08-30T17:19:04.296Z,27.09
2022-08-30T17:21:33.191Z,27.24
2022-08-30T17:24:02.527Z,27.63
2022-08-30T17:26:32.324Z,27.43
2022-08-30T17:29:00.579Z,28.24
2022-08-30T17:31:30.545Z,27.92
2022-08-30T17:34:03.226Z,28.42
2022-08-30T17:36:35.207Z,28.14
2022-08-30T17:39:10.992Z,28.73
2022-08-30T17:41:45.221Z,28.78
2022-08-30T17:44:19.031Z,28.71
2022-08-30T17:46:47.254Z,29.43
2022-08-30T17:49:17.021Z,28.96
2022-08-30T17:51:45.748Z,29.09
2022-08-30T17:54:15.737Z,29.69
2022-08-30T17:56:44.485Z,29.36
2022-08-30T17:59:12.462Z,29.71
2022-08-30T18:01:41.822Z,29.39
2022-08-30T18:04:10.945Z,29.34
2022-08-30T18:06:40.460Z,29.46
2022-08-30T18:09:09.679Z,29.64
2022-08-30T18:11:40.704Z,29.77
2022-08-30T18:14:10.932Z,29.87
2022-08-30T18:16:49.689Z,29.83
2022-08-30T18:19:21.987Z,29.91
2022-08-30T18:21:51.772Z,30.27
2022-08-30T18:24:19.945Z,30.57
2022-08-30T18:26:47.819Z,30.62
2022-08-30T18:29:26.017Z,30.85
2022-08-30T18:31:58.436Z,30.95
2022-08-30T18:34:26.257Z,31.34
2022-08-30T18:36:55.599Z,31.60
2022-08-30T18:39:23.544Z,30.97
2022-08-30T18:41:53.098Z,31.24
2022-08-30T18:44:33.128Z,31.53
2022-08-30T18:47:03.729Z,31.87
2022-08-30T18:49:34.657Z,31.77
2022-08-30T18:52:07.407Z,31.88
2022-08-30T18:54:39.473Z,32.12
2022-08-30T18:57:09.919Z,32.24
2022-08-30T18:59:38.301Z,32.43
2022-08-30T19:02:06.937Z,32.63
2022-08-30T19:04:35.596Z,32.46
2022-08-30T19:07:07.400Z,32.35
2022-08-30T19:09:35.446Z,32.75
2022-08-30T19:12:03.714Z,32.76
2022-08-30T19:14:37.180Z,32.71
2022-08-30T19:19:53.643Z,33.28
2022-08-30T19:22:26.838Z,33.18
2022-08-30T19:24:58.254Z,33.27
2022-08-30T19:27:38.033Z,33.38
2022-08-30T19:30:10.940Z,33.53
2022-08-30T19:32:38.931Z,33.36
2022-08-30T19:35:08.016Z,33.55
2022-08-30T19:37:38.073Z,33.82
2022-08-30T19:40:08.288Z,33.70
2022-08-30T19:42:41.825Z,33.76
2022-08-30T19:45:17.711Z,33.74
2022-08-30T19:47:46.648Z,34.04
2022-08-30T19:50:15.648Z,34.06
2022-08-30T19:52:50.972Z,33.82
2022-08-30T19:55:23.819Z,33.74
2022-08-30T19:57:56.146Z,34.03
2022-08-30T20:00:24.154Z,33.92
2022-08-30T20:02:52.438Z,34.01
2022-08-30T20:05:21.318Z,34.12
2022-08-30T20:10:38.803Z,34.62
2022-08-30T20:13:07.100Z,34.50
2022-08-30T20:15:37.189Z,34.87
2022-08-30T20:18:13.533Z,35.15
2022-08-30T20:20:49.830Z,35.14
2022-08-30T20:23:21.668Z,35.38
2022-08-30T20:24:32.324Z,32.86
2022-08-30T20:25:52.195Z,35.42
2022-08-30T20:28:20.593Z,35.47
2022-08-30T20:30:48.617Z,35.66
2022-08-30T20:33:17.135Z,35.70
2022-08-30T20:35:49.098Z,35.89
2022-08-30T20:38:21.972Z,36.01
2022-08-30T20:40:56.814Z,36.10
2022-08-30T20:43:26.981Z,36.34
2022-08-30T20:45:56.175Z,36.09
2022-08-30T20:48:26.111Z,36.32
2022-08-30T20:50:53.954Z,36.36
2022-08-30T20:53:23.210Z,36.41
2022-08-30T20:55:51.195Z,36.69
2022-08-30T20:58:19.247Z,36.69
2022-08-30T21:00:51.033Z,36.70
2022-08-30T21:03:26.010Z,36.53
2022-08-30T21:05:57.123Z,36.59
2022-08-30T21:08:26.969Z,36.48
2022-08-30T21:10:54.982Z,36.72
2022-08-30T21:13:23.202Z,36.59
2022-08-30T21:15:52.616Z,36.71
2022-08-30T21:18:22.958Z,36.95
2022-08-30T21:20:50.772Z,37.16
2022-08-30T21:23:18.617Z,37.28
2022-08-30T21:25:47.819Z,37.63
2022-08-30T21:28:17.229Z,37.98
2022-08-30T21:30:45.746Z,38.11
2022-08-30T21:33:13.739Z,38.27
2022-08-30T21:35:59.003Z,38.22
2022-08-30T21:38:26.962Z,38.19
2022-08-30T21:40:56.393Z,38.16
2022-08-30T21:43:24.288Z,38.14
2022-08-30T21:45:53.584Z,38.11
2022-08-30T21:48:21.577Z,38.15
2022-08-30T21:50:49.533Z,38.28
2022-08-30T21:53:17.507Z,38.19
2022-08-30T21:55:45.849Z,38.39
2022-08-30T21:58:17.537Z,38.31
2022-08-30T22:00:45.485Z,38.35
2022-08-30T22:03:13.658Z,38.49
2022-08-30T22:05:41.982Z,38.70
2022-08-30T22:08:09.879Z,39.21
2022-08-30T22:10:37.824Z,39.56
2022-08-30T22:13:10.067Z,39.74
2022-08-30T22:15:39.933Z,39.93
2022-08-30T22:18:08.294Z,40.33
2022-08-30T22:20:36.124Z,40.58
2022-08-30T22:23:04.722Z,40.14
2022-08-30T22:25:32.611Z,40.75
2022-08-30T22:28:00.453Z,40.96
2022-08-30T22:30:30.236Z,41.12
2022-08-30T22:32:59.849Z,41.19
2022-08-30T22:35:27.739Z,41.19
2022-08-30T22:37:55.555Z,41.74
2022-08-30T22:40:23.646Z,41.53
2022-08-30T22:42:51.552Z,41.62
2022-08-30T22:45:19.621Z,41.74
2022-08-30T22:47:47.930Z,41.94
2022-08-30T22:50:17.239Z,42.08
2022-08-30T22:52:45.099Z,42.26
2022-08-30T22:55:13.041Z,42.37
2022-08-30T22:57:41.580Z,42.36
2022-08-30T23:00:15.073Z,42.04
2022-08-30T23:02:43.892Z,42.26
2022-08-30T23:05:12.637Z,42.04
2022-08-30T23:07:42.244Z,42.13
2022-08-30T23:10:12.216Z,42.09
2022-08-30T23:12:40.823Z,42.19
2022-08-30T23:15:12.125Z,42.32
2022-08-30T23:17:40.177Z,42.27
2022-08-30T23:20:09.426Z,42.35
2022-08-30T23:22:37.399Z,42.23
2022-08-30T23:25:25.452Z,42.34
2022-08-30T23:28:11.710Z,42.50
2022-08-30T23:31:02.853Z,41.92
2022-08-30T23:33:48.239Z,41.91
2022-08-30T23:36:33.946Z,42.16
2022-08-30T23:39:21.315Z,41.83
2022-08-30T23:42:08.037Z,41.88
2022-08-30T23:44:53.167Z,41.89
2022-08-30T23:47:38.306Z,42.12
2022-08-30T23:50:24.713Z,42.28
2022-08-30T23:53:10.235Z,42.32
2022-08-30T23:55:57.663Z,42.70
2022-08-30T23:58:44.011Z,42.43
